createdAt,value
2023-05-17T00:01:11.247Z,82.70
2023-05-17T00:03:37.982Z,82.70
2023-05-17T00:06:04.821Z,82.40
2023-05-17T00:08:32.021Z,82.40
2023-05-17T00:10:58.872Z,82.30
2023-05-17T00:13:25.716Z,82.00
2023-05-17T00:15:52.434Z,81.90
2023-05-17T00:18:19.215Z,81.80
2023-05-17T00:20:46.074Z,81.50
2023-05-17T00:23:12.786Z,81.40
2023-05-17T00:25:39.486Z,81.60
2023-05-17T00:28:06.280Z,81.80
2023-05-17T00:30:33.837Z,81.70
2023-05-17T00:33:00.811Z,81.00
2023-05-17T00:35:27.814Z,81.20
2023-05-17T00:37:54.770Z,81.30
2023-05-17T00:40:21.680Z,81.30
2023-05-17T00:42:48.515Z,81.00
2023-05-17T00:45:15.999Z,81.40
2023-05-17T00:47:42.858Z,81.20
2023-05-17T00:50:11.836Z,81.10
2023-05-17T00:52:38.811Z,81.20
2023-05-17T00:55:06.183Z,81.50
2023-05-17T00:57:33.111Z,81.70
2023-05-17T01:02:28.673Z,81.20
2023-05-17T01:04:55.456Z,80.70
2023-05-17T01:07:22.263Z,81.30
2023-05-17T01:09:49.347Z,81.30
2023-05-17T01:12:46.320Z,81.30
2023-05-17T01:15:20.597Z,81.60
2023-05-17T01:18:06.237Z,81.40
2023-05-17T01:20:55.443Z,81.10
2023-05-17T01:23:45.171Z,81.20
2023-05-17T01:26:16.205Z,80.90
2023-05-17T01:28:47.235Z,81.20
2023-05-17T01:31:14.860Z,81.70
2023-05-17T01:33:41.896Z,80.90
2023-05-17T01:36:09.237Z,81.40
2023-05-17T01:38:36.002Z,81.00
2023-05-17T01:41:13.034Z,81.50
2023-05-17T01:44:02.864Z,81.70
2023-05-17T01:50:58.966Z,81.20
2023-05-17T01:54:01.605Z,81.90
2023-05-17T01:56:34.655Z,81.60
2023-05-17T01:59:04.835Z,82.00
2023-05-17T02:01:32.510Z,81.80
2023-05-17T02:03:59.259Z,81.10
2023-05-17T02:06:26.140Z,81.50
2023-05-17T02:08:53.574Z,80.90
2023-05-17T02:11:20.407Z,81.30
2023-05-17T02:13:47.145Z,81.50
2023-05-17T02:16:13.863Z,80.90
2023-05-17T02:18:41.359Z,80.90
2023-05-17T02:21:08.517Z,81.00
2023-05-17T02:23:36.686Z,80.50
2023-05-17T02:26:03.412Z,80.50
2023-05-17T02:28:30.294Z,80.40
2023-05-17T02:30:56.972Z,80.60
2023-05-17T02:33:23.906Z,80.80
2023-05-17T02:35:50.735Z,80.80
2023-05-17T02:38:19.552Z,80.60
2023-05-17T02:40:46.287Z,79.90
2023-05-17T02:43:12.973Z,79.70
2023-05-17T02:45:39.971Z,79.20
2023-05-17T02:48:06.998Z,79.20
2023-05-17T02:50:33.808Z,78.70
2023-05-17T02:53:01.057Z,78.80
2023-05-17T02:55:28.094Z,78.70
2023-05-17T02:57:55.098Z,77.70
2023-05-17T03:00:22.841Z,78.00
2023-05-17T03:02:49.820Z,78.30
2023-05-17T03:05:16.938Z,78.20
2023-05-17T03:07:48.533Z,78.00
2023-05-17T03:10:16.119Z,78.20
2023-05-17T03:12:44.902Z,79.00
2023-05-17T03:15:12.771Z,78.40
2023-05-17T03:17:39.565Z,78.10
2023-05-17T03:20:07.871Z,77.50
2023-05-17T03:22:35.690Z,78.00
2023-05-17T03:25:03.856Z,77.70
2023-05-17T03:27:30.930Z,77.60
2023-05-17T03:29:58.365Z,78.10
2023-05-17T03:32:26.272Z,78.00
2023-05-17T03:34:53.359Z,78.40
2023-05-17T03:37:20.474Z,78.20
2023-05-17T03:39:48.062Z,78.40
2023-05-17T03:42:15.180Z,78.00
2023-05-17T03:44:42.224Z,77.90
2023-05-17T03:47:09.110Z,77.90
2023-05-17T03:49:35.805Z,77.60
2023-05-17T03:52:03.570Z,77.90
2023-05-17T03:54:30.585Z,78.30
2023-05-17T03:56:59.471Z,78.40
2023-05-17T03:59:26.246Z,78.70
2023-05-17T04:01:53.201Z,78.30
2023-05-17T04:04:19.981Z,78.30
2023-05-17T04:06:46.812Z,78.40
2023-05-17T04:09:15.463Z,78.50
2023-05-17T04:11:43.372Z,78.80
2023-05-17T04:14:11.156Z,78.50
2023-05-17T04:16:37.950Z,78.70
2023-05-17T04:19:04.827Z,78.70
2023-05-17T04:21:31.624Z,78.50
2023-05-17T04:23:58.296Z,78.00
2023-05-17T04:26:26.796Z,77.90
2023-05-17T04:28:53.614Z,78.00
2023-05-17T04:31:22.346Z,78.10
2023-05-17T04:33:49.263Z,78.40
2023-05-17T04:36:17.555Z,78.70
2023-05-17T04:38:44.365Z,78.50
2023-05-17T04:41:14.573Z,77.60
2023-05-17T04:43:42.737Z,77.70
2023-05-17T04:46:16.027Z,77.80
2023-05-17T04:48:43.767Z,77.90
2023-05-17T04:51:10.767Z,77.70
2023-05-17T04:53:37.569Z,77.50
2023-05-17T04:56:09.472Z,76.80
2023-05-17T04:58:36.409Z,76.40
2023-05-17T05:01:05.293Z,76.60
2023-05-17T05:03:32.144Z,76.50
2023-05-17T05:05:59.005Z,76.10
2023-05-17T05:08:25.835Z,75.60
2023-05-17T05:10:54.426Z,75.30
2023-05-17T05:13:23.463Z,75.10
2023-05-17T05:15:51.431Z,75.50
2023-05-17T05:18:18.377Z,75.50
2023-05-17T05:20:48.087Z,75.70
2023-05-17T05:23:15.039Z,76.10
2023-05-17T05:25:44.525Z,76.10
2023-05-17T05:28:12.121Z,75.70
2023-05-17T05:30:40.288Z,74.70
2023-05-17T05:33:07.496Z,74.50
2023-05-17T05:35:35.290Z,74.10
2023-05-17T05:38:02.174Z,74.00
2023-05-17T05:40:33.836Z,73.90
2023-05-17T05:43:01.570Z,73.90
2023-05-17T05:45:28.839Z,73.70
2023-05-17T05:48:00.277Z,73.00
2023-05-17T05:50:27.677Z,73.20
2023-05-17T05:53:10.990Z,72.90
2023-05-17T05:55:49.391Z,72.20
2023-05-17T05:58:16.174Z,72.20
2023-05-17T06:00:43.086Z,72.00
2023-05-17T06:03:09.817Z,72.50
2023-05-17T06:05:36.627Z,72.40
2023-05-17T06:08:03.557Z,72.50
2023-05-17T06:10:30.668Z,72.70
2023-05-17T06:12:57.794Z,72.30
2023-05-17T06:15:24.544Z,71.60
2023-05-17T06:17:51.324Z,71.20
2023-05-17T06:20:18.303Z,71.30
2023-05-17T06:22:45.066Z,70.70
2023-05-17T06:25:11.780Z,70.90
2023-05-17T06:27:38.563Z,70.20
2023-05-17T06:30:07.480Z,70.30
2023-05-17T06:32:34.831Z,70.10
2023-05-17T06:35:01.855Z,70.40
2023-05-17T06:37:28.711Z,69.30
2023-05-17T06:42:36.486Z,69.90
2023-05-17T06:45:03.395Z,69.30
2023-05-17T06:47:30.288Z,69.40
2023-05-17T06:49:57.117Z,69.20
2023-05-17T06:52:23.860Z,69.60
2023-05-17T06:54:50.695Z,68.80
2023-05-17T06:57:17.601Z,68.00
2023-05-17T06:59:44.421Z,68.40
2023-05-17T07:02:11.134Z,68.50
2023-05-17T07:04:37.966Z,67.80
2023-05-17T07:07:04.857Z,67.90
2023-05-17T07:09:31.619Z,67.70
2023-05-17T07:11:58.334Z,68.60
2023-05-17T07:14:25.049Z,68.10
2023-05-17T07:16:51.788Z,66.20
2023-05-17T07:19:18.632Z,65.90
2023-05-17T07:21:45.939Z,66.30
2023-05-17T07:24:12.800Z,66.00
2023-05-17T07:26:39.484Z,66.30
2023-05-17T07:29:06.469Z,66.90
2023-05-17T07:31:33.206Z,66.40
2023-05-17T07:34:00.168Z,66.30
2023-05-17T07:36:30.513Z,65.90
2023-05-17T07:38:58.076Z,65.80
2023-05-17T07:41:25.874Z,65.10
2023-05-17T07:43:52.629Z,64.50
2023-05-17T07:46:19.418Z,65.00
2023-05-17T07:48:46.404Z,65.10
2023-05-17T07:51:13.179Z,65.00
2023-05-17T07:53:39.943Z,65.20
2023-05-17T07:56:06.849Z,64.70
2023-05-17T07:58:33.596Z,64.10
2023-05-17T08:01:00.434Z,65.10
2023-05-17T08:03:31.451Z,64.40
2023-05-17T08:05:58.248Z,64.60
2023-05-17T08:08:25.098Z,65.40
2023-05-17T08:10:51.817Z,65.00
2023-05-17T08:13:18.629Z,64.00
2023-05-17T08:15:46.389Z,64.10
2023-05-17T08:18:13.186Z,63.80
2023-05-17T08:20:40.011Z,64.00
2023-05-17T08:23:07.329Z,63.60
2023-05-17T08:25:34.030Z,63.00
2023-05-17T08:28:00.785Z,61.70
2023-05-17T08:30:31.564Z,61.60
2023-05-17T08:32:58.561Z,61.70
2023-05-17T08:35:28.456Z,60.60
2023-05-17T08:37:55.683Z,60.00
2023-05-17T08:40:22.580Z,61.30
2023-05-17T08:42:51.356Z,60.50
2023-05-17T08:45:18.879Z,61.00
2023-05-17T08:47:49.155Z,61.30
2023-05-17T08:50:17.540Z,61.40
2023-05-17T08:52:46.387Z,61.20
2023-05-17T08:55:16.292Z,60.30
2023-05-17T08:57:44.663Z,60.00
2023-05-17T09:00:15.618Z,59.60
2023-05-17T09:02:42.836Z,58.70
2023-05-17T09:05:10.830Z,58.60
2023-05-17T09:07:37.900Z,59.10
2023-05-17T09:10:05.967Z,58.40
2023-05-17T09:12:36.744Z,57.90
2023-05-17T09:15:34.237Z,56.80
2023-05-17T09:18:01.300Z,56.90
2023-05-17T09:20:36.529Z,57.40
2023-05-17T09:23:04.433Z,57.00
2023-05-17T09:25:32.514Z,56.70
2023-05-17T09:28:03.985Z,56.10
2023-05-17T09:30:32.631Z,56.10
2023-05-17T09:33:07.165Z,56.30
2023-05-17T09:35:35.262Z,56.40
2023-05-17T09:38:09.656Z,55.40
2023-05-17T09:40:41.386Z,54.00
2023-05-17T09:43:08.724Z,54.40
2023-05-17T09:45:36.348Z,53.80
2023-05-17T09:48:17.567Z,53.40
2023-05-17T09:50:46.496Z,53.10
2023-05-17T09:53:33.301Z,53.70
2023-05-17T09:56:01.292Z,55.30
2023-05-17T09:58:31.429Z,55.30
2023-05-17T10:01:03.814Z,54.30
2023-05-17T10:03:33.411Z,52.90
2023-05-17T10:06:09.850Z,53.20
2023-05-17T10:08:43.292Z,53.20
2023-05-17T10:11:11.053Z,53.20
2023-05-17T10:13:47.507Z,53.60
2023-05-17T10:16:15.819Z,54.00
2023-05-17T10:18:42.903Z,53.80
2023-05-17T10:21:10.742Z,53.90
2023-05-17T10:23:38.991Z,53.30
2023-05-17T10:26:06.609Z,54.30
2023-05-17T10:28:33.424Z,54.10
2023-05-17T10:31:01.054Z,53.50
2023-05-17T10:33:28.047Z,53.00
2023-05-17T10:35:56.292Z,53.10
2023-05-17T10:38:28.900Z,53.60
2023-05-17T10:41:01.672Z,52.30
2023-05-17T10:43:30.397Z,52.40
2023-05-17T10:45:57.451Z,51.60
2023-05-17T10:48:27.817Z,51.70
2023-05-17T10:51:01.515Z,51.00
2023-05-17T10:53:28.681Z,50.80
2023-05-17T10:55:55.419Z,50.60
2023-05-17T10:58:26.044Z,51.00
2023-05-17T11:00:55.788Z,50.90
2023-05-17T11:03:28.746Z,50.60
2023-05-17T11:06:22.069Z,49.40
2023-05-17T11:09:16.391Z,50.10
2023-05-17T11:12:09.622Z,48.40
2023-05-17T11:14:45.619Z,50.40
2023-05-17T11:17:17.789Z,50.70
2023-05-17T11:20:12.330Z,51.30
2023-05-17T11:22:49.942Z,51.80
2023-05-17T11:25:18.560Z,51.00
2023-05-17T11:27:49.826Z,50.40
2023-05-17T11:30:24.520Z,49.50
2023-05-17T11:33:07.058Z,50.50
2023-05-17T11:35:39.641Z,50.40
2023-05-17T11:38:21.768Z,50.30
2023-05-17T11:40:50.501Z,49.70
2023-05-17T11:43:19.294Z,49.90
2023-05-17T11:45:52.895Z,50.30
2023-05-17T11:48:22.697Z,50.90
2023-05-17T11:50:51.710Z,50.00
2023-05-17T11:53:19.231Z,50.10
2023-05-17T11:55:48.539Z,49.20
2023-05-17T11:58:18.083Z,49.60
2023-05-17T12:00:45.142Z,50.50
2023-05-17T12:03:19.641Z,50.70
2023-05-17T12:05:48.322Z,49.80
2023-05-17T12:08:17.428Z,49.70
2023-05-17T12:10:49.879Z,49.30
2023-05-17T12:13:16.824Z,49.70
2023-05-17T12:15:51.540Z,49.20
2023-05-17T12:18:20.534Z,48.40
2023-05-17T12:20:57.992Z,49.10
2023-05-17T12:23:43.394Z,48.70
2023-05-17T12:26:12.284Z,48.70
2023-05-17T12:28:41.195Z,49.20
2023-05-17T12:31:13.062Z,48.20
2023-05-17T12:33:42.402Z,48.10
2023-05-17T12:36:10.950Z,47.10
2023-05-17T12:38:43.779Z,47.90
2023-05-17T12:41:12.539Z,47.90
2023-05-17T12:43:40.665Z,46.50
2023-05-17T12:46:17.752Z,46.20
2023-05-17T12:48:45.333Z,46.60
2023-05-17T12:51:14.267Z,48.00
2023-05-17T12:53:49.180Z,48.40
2023-05-17T12:56:22.340Z,51.80
2023-05-17T12:59:10.817Z,52.80
2023-05-17T13:01:42.903Z,54.10
2023-05-17T13:04:10.133Z,54.70
2023-05-17T13:06:56.228Z,54.50
2023-05-17T13:09:24.414Z,54.90
2023-05-17T13:11:56.394Z,53.60
2023-05-17T13:14:46.156Z,53.50
2023-05-17T13:17:25.388Z,51.60
2023-05-17T13:19:52.819Z,50.80
2023-05-17T13:22:19.624Z,49.00
2023-05-17T13:24:46.400Z,48.80
2023-05-17T13:27:13.491Z,48.90
2023-05-17T13:29:42.118Z,49.30
2023-05-17T13:32:13.627Z,49.90
2023-05-17T13:34:40.926Z,49.20
2023-05-17T13:37:11.156Z,49.30
2023-05-17T13:39:38.607Z,48.60
2023-05-17T13:42:05.669Z,49.50
2023-05-17T13:44:32.689Z,49.50
2023-05-17T13:46:59.390Z,51.00
2023-05-17T13:49:26.555Z,51.90
2023-05-17T13:51:53.271Z,53.40
2023-05-17T13:54:20.751Z,53.60
2023-05-17T13:56:48.768Z,53.80
2023-05-17T13:59:15.464Z,54.40
2023-05-17T14:01:43.382Z,54.00
2023-05-17T14:04:10.164Z,53.80
2023-05-17T14:06:36.959Z,53.90
2023-05-17T14:09:04.044Z,53.90
2023-05-17T14:11:30.775Z,53.50
2023-05-17T14:13:57.514Z,53.90
2023-05-17T14:16:24.228Z,54.00
2023-05-17T14:18:51.186Z,54.50
2023-05-17T14:21:18.325Z,54.80
2023-05-17T14:23:45.068Z,54.90
2023-05-17T14:26:11.922Z,54.60
2023-05-17T14:28:39.156Z,55.10
2023-05-17T14:31:07.114Z,55.80
2023-05-17T14:33:34.269Z,55.70
2023-05-17T14:36:01.154Z,55.60
2023-05-17T14:38:27.878Z,55.50
2023-05-17T14:40:54.636Z,56.50
2023-05-17T14:43:21.867Z,57.00
2023-05-17T14:45:48.648Z,56.40
2023-05-17T14:48:15.639Z,55.80
2023-05-17T14:50:42.444Z,55.40
2023-05-17T14:53:09.183Z,54.70
2023-05-17T14:55:36.313Z,52.80
2023-05-17T14:58:03.050Z,52.90
2023-05-17T15:00:29.891Z,53.20
2023-05-17T15:02:56.865Z,53.00
2023-05-17T15:05:24.163Z,53.70
2023-05-17T15:07:51.062Z,54.10
2023-05-17T15:10:17.898Z,54.10
2023-05-17T15:12:44.628Z,54.60
2023-05-17T15:15:12.409Z,55.20
2023-05-17T15:17:39.159Z,55.20
2023-05-17T15:20:07.413Z,55.60
2023-05-17T15:22:34.193Z,54.70
2023-05-17T15:25:00.946Z,54.00
2023-05-17T15:27:27.664Z,54.30
2023-05-17T15:29:54.386Z,53.90
2023-05-17T15:32:21.512Z,53.20
2023-05-17T15:34:48.267Z,53.40
2023-05-17T15:37:14.966Z,53.40
2023-05-17T15:39:41.648Z,53.30
2023-05-17T15:42:08.353Z,52.80
2023-05-17T15:44:35.036Z,52.60
2023-05-17T15:47:03.188Z,53.20
2023-05-17T15:49:30.271Z,54.20
2023-05-17T15:51:57.026Z,54.00
2023-05-17T15:54:23.701Z,54.30
2023-05-17T15:56:50.400Z,54.40
2023-05-17T15:59:17.369Z,54.30
2023-05-17T16:01:46.291Z,54.00
2023-05-17T16:04:13.732Z,54.40
2023-05-17T16:06:41.142Z,54.70
2023-05-17T16:09:07.968Z,54.70
2023-05-17T16:11:34.695Z,54.50
2023-05-17T16:14:01.459Z,54.50
2023-05-17T16:16:28.196Z,54.80
2023-05-17T16:18:55.080Z,54.80
2023-05-17T16:21:21.871Z,54.80
2023-05-17T16:23:48.858Z,54.90
2023-05-17T16:26:15.728Z,55.50
2023-05-17T16:28:42.529Z,55.20
2023-05-17T16:31:09.545Z,55.40
2023-05-17T16:33:36.697Z,56.40
2023-05-17T16:36:04.929Z,57.80
2023-05-17T16:38:31.705Z,58.50
2023-05-17T16:41:02.988Z,58.30
2023-05-17T16:43:30.912Z,58.80
2023-05-17T16:45:57.703Z,58.80
2023-05-17T16:48:24.524Z,58.70
2023-05-17T16:50:51.576Z,58.90
2023-05-17T16:53:18.822Z,58.80
2023-05-17T16:55:45.695Z,59.50
2023-05-17T16:58:13.025Z,59.70
2023-05-17T17:00:39.725Z,59.20
2023-05-17T17:03:10.044Z,59.40
2023-05-17T17:05:37.211Z,59.40
2023-05-17T17:08:03.934Z,59.50
2023-05-17T17:10:31.019Z,59.60
2023-05-17T17:12:57.930Z,59.60
2023-05-17T17:15:24.947Z,59.70
2023-05-17T17:17:52.214Z,59.90
2023-05-17T17:20:19.061Z,59.70
2023-05-17T17:22:45.978Z,59.70
2023-05-17T17:25:12.677Z,59.60
2023-05-17T17:27:40.219Z,60.10
2023-05-17T17:30:07.624Z,60.10
2023-05-17T17:32:34.469Z,60.20
2023-05-17T17:35:01.419Z,60.80
2023-05-17T17:37:28.187Z,61.10
2023-05-17T17:39:55.149Z,60.40
2023-05-17T17:42:21.891Z,60.80
2023-05-17T17:44:48.711Z,61.30
2023-05-17T17:47:15.623Z,61.50
2023-05-17T17:49:42.442Z,61.80
2023-05-17T17:52:09.201Z,63.10
2023-05-17T17:54:35.934Z,63.80
2023-05-17T17:57:03.120Z,63.90
2023-05-17T17:59:29.960Z,63.80
2023-05-17T18:01:56.813Z,64.20
2023-05-17T18:04:23.692Z,63.80
2023-05-17T18:06:50.470Z,64.50
2023-05-17T18:09:17.354Z,65.00
2023-05-17T18:11:44.078Z,65.30
2023-05-17T18:14:10.856Z,65.10
2023-05-17T18:16:37.806Z,65.10
2023-05-17T18:19:04.690Z,65.30
2023-05-17T18:21:31.536Z,65.50
2023-05-17T18:23:58.546Z,65.80
2023-05-17T18:26:25.848Z,65.30
2023-05-17T18:28:52.566Z,66.40
2023-05-17T18:31:19.366Z,66.50
2023-05-17T18:33:46.154Z,66.60
2023-05-17T18:36:12.913Z,65.70
2023-05-17T18:38:39.720Z,65.60
2023-05-17T18:41:06.770Z,65.70
2023-05-17T18:43:33.607Z,66.00
2023-05-17T18:46:00.500Z,66.30
2023-05-17T18:48:27.765Z,66.40
2023-05-17T18:50:54.814Z,66.40
2023-05-17T18:53:21.515Z,66.50
2023-05-17T18:55:48.234Z,66.70
2023-05-17T18:58:14.961Z,67.20
2023-05-17T19:00:41.745Z,67.50
2023-05-17T19:03:08.535Z,67.90
2023-05-17T19:05:35.482Z,68.00
2023-05-17T19:08:02.219Z,68.00
2023-05-17T19:10:29.271Z,68.50
2023-05-17T19:12:56.157Z,68.30
2023-05-17T19:15:22.871Z,68.30
2023-05-17T19:17:49.659Z,68.20
2023-05-17T19:20:16.685Z,68.50
2023-05-17T19:22:43.425Z,68.60
2023-05-17T19:25:10.394Z,68.30
2023-05-17T19:27:37.148Z,68.30
2023-05-17T19:30:04.957Z,68.10
2023-05-17T19:32:33.041Z,68.00
2023-05-17T19:35:01.355Z,68.20
2023-05-17T19:37:28.624Z,68.80
2023-05-17T19:39:55.586Z,69.00
2023-05-17T19:42:22.274Z,69.00
2023-05-17T19:44:49.030Z,68.80
2023-05-17T19:47:15.768Z,69.00
2023-05-17T19:49:43.246Z,69.10
2023-05-17T19:52:10.301Z,69.00
2023-05-17T19:54:37.144Z,69.20
2023-05-17T19:57:04.066Z,69.20
2023-05-17T19:59:30.967Z,69.60
2023-05-17T20:01:57.860Z,69.60
2023-05-17T20:04:24.672Z,69.80
2023-05-17T20:06:51.794Z,69.80
2023-05-17T20:09:18.537Z,69.80
2023-05-17T20:11:45.439Z,70.20
2023-05-17T20:14:12.416Z,69.80
2023-05-17T20:16:39.346Z,69.70
2023-05-17T20:19:06.478Z,69.60
2023-05-17T20:21:33.572Z,69.60
2023-05-17T20:24:05.264Z,69.80
2023-05-17T20:26:36.349Z,69.80
2023-05-17T20:29:07.603Z,70.00
2023-05-17T20:31:35.797Z,70.00
2023-05-17T20:34:03.932Z,70.30
2023-05-17T20:36:31.432Z,70.00
2023-05-17T20:38:58.249Z,70.10
2023-05-17T20:41:24.968Z,70.00
2023-05-17T20:43:52.486Z,70.20
2023-05-17T20:46:19.332Z,70.00
2023-05-17T20:48:47.753Z,70.00
2023-05-17T20:51:16.124Z,70.40
2023-05-17T20:53:43.124Z,70.50
2023-05-17T20:56:10.112Z,70.30
2023-05-17T20:58:36.831Z,70.60
2023-05-17T21:01:03.665Z,70.70
2023-05-17T21:03:33.879Z,70.90
2023-05-17T21:06:01.632Z,71.00
2023-05-17T21:08:28.612Z,71.10
2023-05-17T21:10:56.088Z,71.30
2023-05-17T21:13:25.464Z,70.90
2023-05-17T21:15:53.635Z,71.60
2023-05-17T21:18:20.646Z,72.70
2023-05-17T21:20:47.545Z,72.60
2023-05-17T21:23:14.340Z,72.30
2023-05-17T21:25:41.104Z,72.60
2023-05-17T21:28:08.404Z,72.30
2023-05-17T21:30:35.255Z,72.60
2023-05-17T21:33:02.274Z,73.10
2023-05-17T21:35:29.154Z,73.30
2023-05-17T21:37:55.896Z,73.50
2023-05-17T21:40:22.905Z,73.50
2023-05-17T21:42:49.611Z,74.20
2023-05-17T21:45:16.586Z,74.30
2023-05-17T21:47:43.326Z,74.10
2023-05-17T21:50:10.772Z,74.70
2023-05-17T21:52:37.521Z,75.00
2023-05-17T21:55:04.818Z,74.60
2023-05-17T21:57:35.968Z,74.30
2023-05-17T22:00:07.869Z,74.10
2023-05-17T22:02:36.489Z,74.10
2023-05-17T22:05:03.335Z,73.90
2023-05-17T22:07:30.140Z,73.40
2023-05-17T22:09:58.209Z,73.60
2023-05-17T22:12:27.827Z,73.60
2023-05-17T22:14:56.284Z,73.90
2023-05-17T22:17:35.104Z,73.40
2023-05-17T22:20:11.433Z,73.20
2023-05-17T22:22:38.351Z,73.30
2023-05-17T22:25:06.733Z,73.40
2023-05-17T22:27:33.465Z,73.50
2023-05-17T22:30:00.719Z,73.40
2023-05-17T22:32:27.477Z,73.50
2023-05-17T22:34:56.000Z,73.70
2023-05-17T22:37:23.506Z,73.70
2023-05-17T22:39:50.519Z,73.80
2023-05-17T22:42:17.288Z,73.60
2023-05-17T22:44:44.001Z,73.90
2023-05-17T22:47:14.525Z,73.90
2023-05-17T22:49:41.791Z,74.10
2023-05-17T22:52:09.040Z,74.30
2023-05-17T22:54:37.410Z,74.30
2023-05-17T22:57:05.043Z,74.50
2023-05-17T22:59:32.866Z,74.40
2023-05-17T23:02:00.047Z,74.40
2023-05-17T23:04:27.302Z,74.00
2023-05-17T23:06:54.656Z,74.00
2023-05-17T23:09:22.147Z,74.10
2023-05-17T23:11:50.336Z,73.70
2023-05-17T23:14:17.770Z,73.80
2023-05-17T23:16:44.650Z,74.00
2023-05-17T23:19:13.233Z,73.90
2023-05-17T23:21:40.154Z,73.70
2023-05-17T23:24:08.008Z,73.90
2023-05-17T23:26:35.212Z,73.70
2023-05-17T23:29:03.522Z,73.90
2023-05-17T23:31:30.430Z,73.80
2023-05-17T23:33:57.283Z,73.60
2023-05-17T23:36:24.103Z,73.60
2023-05-17T23:38:50.842Z,73.80
2023-05-17T23:41:19.571Z,73.60
2023-05-17T23:43:46.903Z,73.50
2023-05-17T23:46:13.730Z,73.80
2023-05-17T23:48:40.482Z,73.90
2023-05-17T23:51:07.193Z,74.00
2023-05-17T23:53:34.121Z,73.90
2023-05-17T23:56:01.426Z,73.90
2023-05-17T23:58:28.162Z,74.00
